sensor_id;sensor_type;location;lat;lon;timestamp;temperature;humidity
44982;DHT22;30716;41.740;-70.400;2022-12-07T00:01:32;24.90;43.50
44982;DHT22;30716;41.740;-70.400;2022-12-07T00:04:01;24.90;43.60
44982;DHT22;30716;41.740;-70.400;2022-12-07T00:06:38;24.90;43.70
44982;DHT22;30716;41.740;-70.400;2022-12-07T00:09:06;24.90;43.70
44982;DHT22;30716;41.740;-70.400;2022-12-07T00:11:33;24.90;43.70
44982;DHT22;30716;41.740;-70.400;2022-12-07T00:14:01;24.90;43.70
44982;DHT22;30716;41.740;-70.400;2022-12-07T00:16:31;24.90;43.80
44982;DHT22;30716;41.740;-70.400;2022-12-07T00:18:57;24.90;43.70
44982;DHT22;30716;41.740;-70.400;2022-12-07T00:21:27;24.90;43.80
44982;DHT22;30716;41.740;-70.400;2022-12-07T00:23:55;24.90;43.80
44982;DHT22;30716;41.740;-70.400;2022-12-07T00:26:33;24.90;43.80
44982;DHT22;30716;41.740;-70.400;2022-12-07T00:29:02;24.90;43.80
44982;DHT22;30716;41.740;-70.400;2022-12-07T00:31:34;24.80;43.70
44982;DHT22;30716;41.740;-70.400;2022-12-07T00:34:07;24.80;43.70
44982;DHT22;30716;41.740;-70.400;2022-12-07T00:36:37;24.80;43.70
44982;DHT22;30716;41.740;-70.400;2022-12-07T00:39:03;24.80;43.70
44982;DHT22;30716;41.740;-70.400;2022-12-07T00:41:29;24.80;43.70
44982;DHT22;30716;41.740;-70.400;2022-12-07T00:43:56;24.80;43.80
44982;DHT22;30716;41.740;-70.400;2022-12-07T00:46:23;24.80;43.70
44982;DHT22;30716;41.740;-70.400;2022-12-07T00:48:51;24.80;43.70
44982;DHT22;30716;41.740;-70.400;2022-12-07T00:51:19;24.80;43.80
44982;DHT22;30716;41.740;-70.400;2022-12-07T00:53:46;24.80;43.80
44982;DHT22;30716;41.740;-70.400;2022-12-07T00:56:14;24.80;43.90
44982;DHT22;30716;41.740;-70.400;2022-12-07T00:58:41;24.80;44.00
44982;DHT22;30716;41.740;-70.400;2022-12-07T01:01:09;24.80;43.90
44982;DHT22;30716;41.740;-70.400;2022-12-07T01:03:36;24.80;44.00
44982;DHT22;30716;41.740;-70.400;2022-12-07T01:06:03;24.80;43.90
44982;DHT22;30716;41.740;-70.400;2022-12-07T01:08:30;24.80;43.90
44982;DHT22;30716;41.740;-70.400;2022-12-07T01:11:01;24.80;44.00
44982;DHT22;30716;41.740;-70.400;2022-12-07T01:13:28;24.80;43.90
44982;DHT22;30716;41.740;-70.400;2022-12-07T01:15:57;24.80;43.90
44982;DHT22;30716;41.740;-70.400;2022-12-07T01:18:26;24.80;43.90
44982;DHT22;30716;41.740;-70.400;2022-12-07T01:23:30;24.80;43.80
44982;DHT22;30716;41.740;-70.400;2022-12-07T01:25:58;24.90;43.90
44982;DHT22;30716;41.740;-70.400;2022-12-07T01:28:25;24.90;43.80
44982;DHT22;30716;41.740;-70.400;2022-12-07T01:31:00;24.90;43.80
44982;DHT22;30716;41.740;-70.400;2022-12-07T01:33:29;24.90;43.90
44982;DHT22;30716;41.740;-70.400;2022-12-07T01:36:01;24.90;43.80
44982;DHT22;30716;41.740;-70.400;2022-12-07T01:38:28;24.90;43.90
44982;DHT22;30716;41.740;-70.400;2022-12-07T01:40:56;24.90;43.80
44982;DHT22;30716;41.740;-70.400;2022-12-07T01:43:23;24.90;43.70
44982;DHT22;30716;41.740;-70.400;2022-12-07T01:45:50;24.90;43.80
44982;DHT22;30716;41.740;-70.400;2022-12-07T01:48:18;24.90;43.80
44982;DHT22;30716;41.740;-70.400;2022-12-07T01:50:48;24.90;43.80
44982;DHT22;30716;41.740;-70.400;2022-12-07T01:53:17;24.90;43.80
44982;DHT22;30716;41.740;-70.400;2022-12-07T01:55:47;25.00;44.00
44982;DHT22;30716;41.740;-70.400;2022-12-07T01:58:14;25.00;43.90
44982;DHT22;30716;41.740;-70.400;2022-12-07T02:00:41;25.00;43.90
44982;DHT22;30716;41.740;-70.400;2022-12-07T02:05:38;25.00;43.80
44982;DHT22;30716;41.740;-70.400;2022-12-07T02:08:06;25.00;43.90
44982;DHT22;30716;41.740;-70.400;2022-12-07T02:10:33;25.00;43.80
44982;DHT22;30716;41.740;-70.400;2022-12-07T02:13:15;25.00;43.90
44982;DHT22;30716;41.740;-70.400;2022-12-07T02:21:29;25.00;43.80
44982;DHT22;30716;41.740;-70.400;2022-12-07T02:30:03;25.00;43.80
44982;DHT22;30716;41.740;-70.400;2022-12-07T02:32:37;25.00;43.80
44982;DHT22;30716;41.740;-70.400;2022-12-07T02:35:15;25.00;43.80
44982;DHT22;30716;41.740;-70.400;2022-12-07T02:38:03;25.00;43.80
44982;DHT22;30716;41.740;-70.400;2022-12-07T02:41:00;25.00;43.80
44982;DHT22;30716;41.740;-70.400;2022-12-07T02:43:32;25.00;43.70
44982;DHT22;30716;41.740;-70.400;2022-12-07T02:46:06;25.00;43.80
44982;DHT22;30716;41.740;-70.400;2022-12-07T02:48:34;25.00;43.90
44982;DHT22;30716;41.740;-70.400;2022-12-07T02:51:00;25.00;43.90
44982;DHT22;30716;41.740;-70.400;2022-12-07T02:53:39;25.00;43.90
44982;DHT22;30716;41.740;-70.400;2022-12-07T03:04:39;25.10;44.00
44982;DHT22;30716;41.740;-70.400;2022-12-07T03:07:17;25.10;43.90
44982;DHT22;30716;41.740;-70.400;2022-12-07T03:15:47;25.30;43.50
44982;DHT22;30716;41.740;-70.400;2022-12-07T03:18:18;25.40;43.40
44982;DHT22;30716;41.740;-70.400;2022-12-07T03:20:49;25.40;43.40
44982;DHT22;30716;41.740;-70.400;2022-12-07T03:23:18;25.50;43.30
44982;DHT22;30716;41.740;-70.400;2022-12-07T03:25:48;25.50;43.20
44982;DHT22;30716;41.740;-70.400;2022-12-07T03:28:19;25.50;43.20
44982;DHT22;30716;41.740;-70.400;2022-12-07T03:31:00;25.50;43.10
44982;DHT22;30716;41.740;-70.400;2022-12-07T03:33:49;25.50;43.00
44982;DHT22;30716;41.740;-70.400;2022-12-07T03:36:35;25.60;43.10
44982;DHT22;30716;41.740;-70.400;2022-12-07T03:41:43;25.60;43.10
44982;DHT22;30716;41.740;-70.400;2022-12-07T03:44:09;25.60;43.00
44982;DHT22;30716;41.740;-70.400;2022-12-07T03:47:03;25.60;43.00
44982;DHT22;30716;41.740;-70.400;2022-12-07T03:49:40;25.60;42.90
44982;DHT22;30716;41.740;-70.400;2022-12-07T03:52:26;25.70;43.00
44982;DHT22;30716;41.740;-70.400;2022-12-07T03:54:59;25.70;42.90
44982;DHT22;30716;41.740;-70.400;2022-12-07T03:57:27;25.70;42.80
44982;DHT22;30716;41.740;-70.400;2022-12-07T03:59:55;25.70;42.80
44982;DHT22;30716;41.740;-70.400;2022-12-07T04:02:24;25.70;42.80
44982;DHT22;30716;41.740;-70.400;2022-12-07T04:04:51;25.70;42.80
44982;DHT22;30716;41.740;-70.400;2022-12-07T04:07:18;25.70;42.80
44982;DHT22;30716;41.740;-70.400;2022-12-07T04:09:44;25.70;42.70
44982;DHT22;30716;41.740;-70.400;2022-12-07T04:12:10;25.80;42.90
44982;DHT22;30716;41.740;-70.400;2022-12-07T04:14:36;25.80;42.80
44982;DHT22;30716;41.740;-70.400;2022-12-07T04:17:03;25.80;42.80
44982;DHT22;30716;41.740;-70.400;2022-12-07T04:19:31;25.80;42.80
44982;DHT22;30716;41.740;-70.400;2022-12-07T04:21:59;25.80;42.80
44982;DHT22;30716;41.740;-70.400;2022-12-07T04:24:26;25.80;42.70
44982;DHT22;30716;41.740;-70.400;2022-12-07T04:26:53;25.80;42.80
44982;DHT22;30716;41.740;-70.400;2022-12-07T04:29:20;25.80;42.70
44982;DHT22;30716;41.740;-70.400;2022-12-07T04:31:47;25.80;42.70
44982;DHT22;30716;41.740;-70.400;2022-12-07T04:34:14;25.80;42.80
44982;DHT22;30716;41.740;-70.400;2022-12-07T04:36:42;25.80;42.80
44982;DHT22;30716;41.740;-70.400;2022-12-07T04:39:32;25.80;42.80
44982;DHT22;30716;41.740;-70.400;2022-12-07T04:41:59;25.80;42.80
44982;DHT22;30716;41.740;-70.400;2022-12-07T04:44:27;25.80;42.90
44982;DHT22;30716;41.740;-70.400;2022-12-07T04:46:54;25.80;42.90
44982;DHT22;30716;41.740;-70.400;2022-12-07T04:49:21;25.70;42.90
44982;DHT22;30716;41.740;-70.400;2022-12-07T04:51:47;25.70;43.00
44982;DHT22;30716;41.740;-70.400;2022-12-07T04:54:15;25.70;43.00
44982;DHT22;30716;41.740;-70.400;2022-12-07T04:56:41;25.60;43.00
44982;DHT22;30716;41.740;-70.400;2022-12-07T04:59:08;25.60;43.00
44982;DHT22;30716;41.740;-70.400;2022-12-07T05:01:35;25.60;43.10
44982;DHT22;30716;41.740;-70.400;2022-12-07T05:04:01;25.60;43.10
44982;DHT22;30716;41.740;-70.400;2022-12-07T05:06:27;25.60;43.10
44982;DHT22;30716;41.740;-70.400;2022-12-07T05:08:53;25.60;43.20
44982;DHT22;30716;41.740;-70.400;2022-12-07T05:11:20;25.50;43.10
44982;DHT22;30716;41.740;-70.400;2022-12-07T05:14:16;25.50;43.20
44982;DHT22;30716;41.740;-70.400;2022-12-07T05:16:44;25.50;43.20
44982;DHT22;30716;41.740;-70.400;2022-12-07T05:19:11;25.50;43.30
44982;DHT22;30716;41.740;-70.400;2022-12-07T05:21:38;25.50;43.30
44982;DHT22;30716;41.740;-70.400;2022-12-07T05:24:05;25.50;43.30
44982;DHT22;30716;41.740;-70.400;2022-12-07T05:26:31;25.40;43.30
44982;DHT22;30716;41.740;-70.400;2022-12-07T05:28:58;25.40;43.40
44982;DHT22;30716;41.740;-70.400;2022-12-07T05:31:25;25.40;43.30
44982;DHT22;30716;41.740;-70.400;2022-12-07T05:33:52;25.40;43.40
44982;DHT22;30716;41.740;-70.400;2022-12-07T05:36:19;25.40;43.40
44982;DHT22;30716;41.740;-70.400;2022-12-07T05:38:46;25.30;44.20
44982;DHT22;30716;41.740;-70.400;2022-12-07T05:41:17;25.30;43.50
44982;DHT22;30716;41.740;-70.400;2022-12-07T05:44:03;25.30;43.60
44982;DHT22;30716;41.740;-70.400;2022-12-07T05:46:30;25.30;43.70
44982;DHT22;30716;41.740;-70.400;2022-12-07T05:48:56;25.30;43.70
44982;DHT22;30716;41.740;-70.400;2022-12-07T05:51:22;25.30;43.70
44982;DHT22;30716;41.740;-70.400;2022-12-07T05:53:49;25.30;43.80
44982;DHT22;30716;41.740;-70.400;2022-12-07T05:56:15;25.20;43.70
44982;DHT22;30716;41.740;-70.400;2022-12-07T05:58:41;25.20;43.80
44982;DHT22;30716;41.740;-70.400;2022-12-07T06:01:26;25.20;43.80
44982;DHT22;30716;41.740;-70.400;2022-12-07T06:03:52;25.20;43.80
44982;DHT22;30716;41.740;-70.400;2022-12-07T06:06:18;25.20;43.80
44982;DHT22;30716;41.740;-70.400;2022-12-07T06:08:45;25.20;43.70
44982;DHT22;30716;41.740;-70.400;2022-12-07T06:11:11;25.20;43.70
44982;DHT22;30716;41.740;-70.400;2022-12-07T06:13:56;25.20;43.70
44982;DHT22;30716;41.740;-70.400;2022-12-07T06:16:22;25.20;43.70
44982;DHT22;30716;41.740;-70.400;2022-12-07T06:18:48;25.20;43.70
44982;DHT22;30716;41.740;-70.400;2022-12-07T06:21:15;25.20;43.70
44982;DHT22;30716;41.740;-70.400;2022-12-07T06:23:41;25.20;43.70
44982;DHT22;30716;41.740;-70.400;2022-12-07T06:26:07;25.20;43.80
44982;DHT22;30716;41.740;-70.400;2022-12-07T06:28:33;25.20;43.80
44982;DHT22;30716;41.740;-70.400;2022-12-07T06:31:01;25.20;43.80
44982;DHT22;30716;41.740;-70.400;2022-12-07T06:33:27;25.20;43.90
44982;DHT22;30716;41.740;-70.400;2022-12-07T06:35:54;25.20;43.90
44982;DHT22;30716;41.740;-70.400;2022-12-07T06:38:21;25.20;43.90
44982;DHT22;30716;41.740;-70.400;2022-12-07T06:40:47;25.20;43.70
44982;DHT22;30716;41.740;-70.400;2022-12-07T06:43:14;25.20;43.80
44982;DHT22;30716;41.740;-70.400;2022-12-07T06:45:43;25.20;43.80
44982;DHT22;30716;41.740;-70.400;2022-12-07T06:48:09;25.20;43.90
44982;DHT22;30716;41.740;-70.400;2022-12-07T06:50:35;25.20;44.00
44982;DHT22;30716;41.740;-70.400;2022-12-07T06:53:02;25.20;44.00
44982;DHT22;30716;41.740;-70.400;2022-12-07T06:55:28;25.20;43.90
44982;DHT22;30716;41.740;-70.400;2022-12-07T06:57:54;25.20;44.00
44982;DHT22;30716;41.740;-70.400;2022-12-07T07:00:21;25.20;44.00
44982;DHT22;30716;41.740;-70.400;2022-12-07T07:02:47;25.10;44.00
44982;DHT22;30716;41.740;-70.400;2022-12-07T07:05:13;25.10;44.00
44982;DHT22;30716;41.740;-70.400;2022-12-07T07:07:40;25.20;44.30
44982;DHT22;30716;41.740;-70.400;2022-12-07T07:10:06;25.20;44.00
44982;DHT22;30716;41.740;-70.400;2022-12-07T07:12:33;25.10;44.00
44982;DHT22;30716;41.740;-70.400;2022-12-07T07:14:59;25.20;44.00
44982;DHT22;30716;41.740;-70.400;2022-12-07T07:17:26;25.20;44.00
44982;DHT22;30716;41.740;-70.400;2022-12-07T07:19:52;25.20;44.00
44982;DHT22;30716;41.740;-70.400;2022-12-07T07:22:18;25.20;44.00
44982;DHT22;30716;41.740;-70.400;2022-12-07T07:24:45;25.20;44.00
44982;DHT22;30716;41.740;-70.400;2022-12-07T07:27:12;25.20;44.00
44982;DHT22;30716;41.740;-70.400;2022-12-07T07:29:38;25.20;44.00
44982;DHT22;30716;41.740;-70.400;2022-12-07T07:32:04;25.20;44.00
44982;DHT22;30716;41.740;-70.400;2022-12-07T07:34:31;25.20;43.90
44982;DHT22;30716;41.740;-70.400;2022-12-07T07:36:57;25.20;44.00
44982;DHT22;30716;41.740;-70.400;2022-12-07T07:39:23;25.20;44.00
44982;DHT22;30716;41.740;-70.400;2022-12-07T07:41:49;25.20;44.00
44982;DHT22;30716;41.740;-70.400;2022-12-07T07:44:16;25.20;44.00
44982;DHT22;30716;41.740;-70.400;2022-12-07T07:46:42;25.20;43.90
44982;DHT22;30716;41.740;-70.400;2022-12-07T07:49:10;25.20;43.90
44982;DHT22;30716;41.740;-70.400;2022-12-07T07:51:37;25.20;44.10
44982;DHT22;30716;41.740;-70.400;2022-12-07T07:54:03;25.20;44.10
44982;DHT22;30716;41.740;-70.400;2022-12-07T07:56:29;25.20;44.20
44982;DHT22;30716;41.740;-70.400;2022-12-07T07:58:55;25.20;44.20
44982;DHT22;30716;41.740;-70.400;2022-12-07T08:01:22;25.10;44.10
44982;DHT22;30716;41.740;-70.400;2022-12-07T08:03:48;25.10;44.20
44982;DHT22;30716;41.740;-70.400;2022-12-07T08:06:14;25.10;44.20
44982;DHT22;30716;41.740;-70.400;2022-12-07T08:08:41;25.10;44.20
44982;DHT22;30716;41.740;-70.400;2022-12-07T08:11:08;25.10;44.20
44982;DHT22;30716;41.740;-70.400;2022-12-07T08:13:37;25.10;44.20
44982;DHT22;30716;41.740;-70.400;2022-12-07T08:16:10;25.10;44.20
44982;DHT22;30716;41.740;-70.400;2022-12-07T08:18:41;25.10;44.20
44982;DHT22;30716;41.740;-70.400;2022-12-07T08:21:11;25.10;44.20
44982;DHT22;30716;41.740;-70.400;2022-12-07T08:23:38;25.10;44.20
44982;DHT22;30716;41.740;-70.400;2022-12-07T08:26:09;25.10;44.20
44982;DHT22;30716;41.740;-70.400;2022-12-07T08:28:39;25.10;44.30
44982;DHT22;30716;41.740;-70.400;2022-12-07T08:31:07;25.10;44.30
44982;DHT22;30716;41.740;-70.400;2022-12-07T08:33:37;25.10;44.30
44982;DHT22;30716;41.740;-70.400;2022-12-07T08:36:09;25.00;44.30
44982;DHT22;30716;41.740;-70.400;2022-12-07T08:38:37;25.00;44.40
44982;DHT22;30716;41.740;-70.400;2022-12-07T08:41:04;25.00;44.30
44982;DHT22;30716;41.740;-70.400;2022-12-07T08:43:31;25.00;44.30
44982;DHT22;30716;41.740;-70.400;2022-12-07T08:48:23;25.00;44.40
44982;DHT22;30716;41.740;-70.400;2022-12-07T08:50:51;25.00;44.30
44982;DHT22;30716;41.740;-70.400;2022-12-07T08:53:18;25.00;44.30
44982;DHT22;30716;41.740;-70.400;2022-12-07T08:55:45;25.00;44.30
44982;DHT22;30716;41.740;-70.400;2022-12-07T08:58:12;25.00;44.30
44982;DHT22;30716;41.740;-70.400;2022-12-07T09:00:38;25.10;44.40
44982;DHT22;30716;41.740;-70.400;2022-12-07T09:03:04;25.00;44.30
44982;DHT22;30716;41.740;-70.400;2022-12-07T09:05:32;25.10;44.30
44982;DHT22;30716;41.740;-70.400;2022-12-07T09:08:01;25.10;44.30
44982;DHT22;30716;41.740;-70.400;2022-12-07T09:10:28;25.10;44.40
44982;DHT22;30716;41.740;-70.400;2022-12-07T09:12:55;25.00;44.30
44982;DHT22;30716;41.740;-70.400;2022-12-07T09:15:21;25.10;44.40
44982;DHT22;30716;41.740;-70.400;2022-12-07T09:17:47;25.10;44.40
44982;DHT22;30716;41.740;-70.400;2022-12-07T09:20:13;25.10;45.20
44982;DHT22;30716;41.740;-70.400;2022-12-07T09:22:40;25.10;44.30
44982;DHT22;30716;41.740;-70.400;2022-12-07T09:25:06;25.10;44.40
44982;DHT22;30716;41.740;-70.400;2022-12-07T09:27:32;25.10;44.30
44982;DHT22;30716;41.740;-70.400;2022-12-07T09:29:59;25.10;44.30
44982;DHT22;30716;41.740;-70.400;2022-12-07T09:32:25;25.10;44.30
44982;DHT22;30716;41.740;-70.400;2022-12-07T09:34:51;25.20;44.20
44982;DHT22;30716;41.740;-70.400;2022-12-07T09:37:18;25.20;44.00
44982;DHT22;30716;41.740;-70.400;2022-12-07T09:39:44;25.30;44.00
44982;DHT22;30716;41.740;-70.400;2022-12-07T09:42:37;25.40;43.90
44982;DHT22;30716;41.740;-70.400;2022-12-07T09:45:15;25.40;43.70
44982;DHT22;30716;41.740;-70.400;2022-12-07T09:47:42;25.50;43.70
44982;DHT22;30716;41.740;-70.400;2022-12-07T09:50:27;25.50;43.60
44982;DHT22;30716;41.740;-70.400;2022-12-07T09:53:11;25.50;43.60
44982;DHT22;30716;41.740;-70.400;2022-12-07T09:55:41;25.60;43.50
44982;DHT22;30716;41.740;-70.400;2022-12-07T09:58:22;25.50;43.40
44982;DHT22;30716;41.740;-70.400;2022-12-07T10:00:52;25.60;43.40
44982;DHT22;30716;41.740;-70.400;2022-12-07T10:03:19;25.60;43.50
44982;DHT22;30716;41.740;-70.400;2022-12-07T10:05:48;25.60;43.40
44982;DHT22;30716;41.740;-70.400;2022-12-07T10:08:16;25.70;43.40
44982;DHT22;30716;41.740;-70.400;2022-12-07T10:10:44;25.70;43.40
44982;DHT22;30716;41.740;-70.400;2022-12-07T10:13:13;25.70;43.30
44982;DHT22;30716;41.740;-70.400;2022-12-07T10:15:55;25.70;44.10
44982;DHT22;30716;41.740;-70.400;2022-12-07T10:18:34;25.70;43.20
44982;DHT22;30716;41.740;-70.400;2022-12-07T10:21:19;25.70;43.20
44982;DHT22;30716;41.740;-70.400;2022-12-07T10:24:24;25.80;43.30
44982;DHT22;30716;41.740;-70.400;2022-12-07T10:26:52;25.80;43.30
44982;DHT22;30716;41.740;-70.400;2022-12-07T10:32:26;25.80;43.20
44982;DHT22;30716;41.740;-70.400;2022-12-07T10:34:48;25.80;43.30
44982;DHT22;30716;41.740;-70.400;2022-12-07T10:37:19;25.80;43.20
44982;DHT22;30716;41.740;-70.400;2022-12-07T10:39:53;25.80;43.20
44982;DHT22;30716;41.740;-70.400;2022-12-07T10:45:16;25.80;43.10
44982;DHT22;30716;41.740;-70.400;2022-12-07T10:56:11;25.80;43.20
44982;DHT22;30716;41.740;-70.400;2022-12-07T11:01:38;25.80;43.10
44982;DHT22;30716;41.740;-70.400;2022-12-07T11:09:46;25.80;43.30
44982;DHT22;30716;41.740;-70.400;2022-12-07T11:12:24;25.80;43.40
44982;DHT22;30716;41.740;-70.400;2022-12-07T11:15:03;25.80;43.50
44982;DHT22;30716;41.740;-70.400;2022-12-07T11:18:09;25.70;43.40
44982;DHT22;30716;41.740;-70.400;2022-12-07T11:25:48;25.70;43.70
44982;DHT22;30716;41.740;-70.400;2022-12-07T11:31:23;25.60;43.70
44982;DHT22;30716;41.740;-70.400;2022-12-07T11:39:47;25.50;43.80
44982;DHT22;30716;41.740;-70.400;2022-12-07T11:42:15;25.50;43.80
44982;DHT22;30716;41.740;-70.400;2022-12-07T11:44:53;25.60;43.80
44982;DHT22;30716;41.740;-70.400;2022-12-07T11:50:03;25.80;43.60
44982;DHT22;30716;41.740;-70.400;2022-12-07T11:53:33;25.80;43.40
44982;DHT22;30716;41.740;-70.400;2022-12-07T12:01:11;26.00;43.10
44982;DHT22;30716;41.740;-70.400;2022-12-07T12:03:56;26.00;43.00
44982;DHT22;30716;41.740;-70.400;2022-12-07T12:06:24;26.10;42.90
44982;DHT22;30716;41.740;-70.400;2022-12-07T12:09:43;26.10;42.80
44982;DHT22;30716;41.740;-70.400;2022-12-07T12:12:37;26.10;42.80
44982;DHT22;30716;41.740;-70.400;2022-12-07T12:15:37;26.20;42.80
44982;DHT22;30716;41.740;-70.400;2022-12-07T12:19:10;26.20;42.70
44982;DHT22;30716;41.740;-70.400;2022-12-07T12:21:16;26.20;42.70
44982;DHT22;30716;41.740;-70.400;2022-12-07T12:24:00;26.20;42.70
44982;DHT22;30716;41.740;-70.400;2022-12-07T12:26:32;26.20;42.70
44982;DHT22;30716;41.740;-70.400;2022-12-07T12:29:05;26.20;42.60
44982;DHT22;30716;41.740;-70.400;2022-12-07T12:31:40;26.30;42.60
44982;DHT22;30716;41.740;-70.400;2022-12-07T12:34:30;26.30;42.60
44982;DHT22;30716;41.740;-70.400;2022-12-07T12:36:57;26.30;42.60
44982;DHT22;30716;41.740;-70.400;2022-12-07T12:39:23;26.30;42.60
44982;DHT22;30716;41.740;-70.400;2022-12-07T12:41:56;26.40;42.60
44982;DHT22;30716;41.740;-70.400;2022-12-07T12:46:54;26.50;42.50
44982;DHT22;30716;41.740;-70.400;2022-12-07T12:54:21;26.50;42.30
44982;DHT22;30716;41.740;-70.400;2022-12-07T13:02:28;26.50;42.10
44982;DHT22;30716;41.740;-70.400;2022-12-07T13:08:13;26.50;42.20
44982;DHT22;30716;41.740;-70.400;2022-12-07T13:10:46;26.50;42.30
44982;DHT22;30716;41.740;-70.400;2022-12-07T13:18:45;26.40;43.30
44982;DHT22;30716;41.740;-70.400;2022-12-07T13:24:01;26.30;42.70
44982;DHT22;30716;41.740;-70.400;2022-12-07T13:26:52;26.20;42.80
44982;DHT22;30716;41.740;-70.400;2022-12-07T13:29:22;26.20;42.90
44982;DHT22;30716;41.740;-70.400;2022-12-07T13:31:55;26.10;43.00
44982;DHT22;30716;41.740;-70.400;2022-12-07T13:34:28;26.10;43.00
44982;DHT22;30716;41.740;-70.400;2022-12-07T13:36:56;26.10;43.10
44982;DHT22;30716;41.740;-70.400;2022-12-07T13:39:26;26.10;43.20
44982;DHT22;30716;41.740;-70.400;2022-12-07T13:41:59;26.10;43.20
44982;DHT22;30716;41.740;-70.400;2022-12-07T13:44:39;26.00;43.20
44982;DHT22;30716;41.740;-70.400;2022-12-07T13:47:43;26.00;43.30
44982;DHT22;30716;41.740;-70.400;2022-12-07T13:50:30;26.00;43.30
44982;DHT22;30716;41.740;-70.400;2022-12-07T13:52:59;26.00;43.40
44982;DHT22;30716;41.740;-70.400;2022-12-07T13:55:28;26.00;43.40
44982;DHT22;30716;41.740;-70.400;2022-12-07T13:57:56;25.90;43.40
44982;DHT22;30716;41.740;-70.400;2022-12-07T14:00:27;25.90;44.20
44982;DHT22;30716;41.740;-70.400;2022-12-07T14:05:42;25.90;43.60
44982;DHT22;30716;41.740;-70.400;2022-12-07T14:10:56;25.90;43.70
44982;DHT22;30716;41.740;-70.400;2022-12-07T14:13:38;25.90;43.80
44982;DHT22;30716;41.740;-70.400;2022-12-07T14:16:30;25.90;43.80
44982;DHT22;30716;41.740;-70.400;2022-12-07T14:19:04;25.90;43.80
44982;DHT22;30716;41.740;-70.400;2022-12-07T14:21:35;25.80;43.90
44982;DHT22;30716;41.740;-70.400;2022-12-07T14:24:14;25.80;43.80
44982;DHT22;30716;41.740;-70.400;2022-12-07T14:26:42;25.80;43.80
44982;DHT22;30716;41.740;-70.400;2022-12-07T14:31:46;25.80;44.70
44982;DHT22;30716;41.740;-70.400;2022-12-07T14:34:13;25.80;44.00
44982;DHT22;30716;41.740;-70.400;2022-12-07T14:36:46;25.80;44.00
44982;DHT22;30716;41.740;-70.400;2022-12-07T14:39:14;25.80;44.00
44982;DHT22;30716;41.740;-70.400;2022-12-07T14:41:41;25.80;44.00
44982;DHT22;30716;41.740;-70.400;2022-12-07T14:44:19;25.80;44.10
44982;DHT22;30716;41.740;-70.400;2022-12-07T14:46:50;25.80;44.10
44982;DHT22;30716;41.740;-70.400;2022-12-07T14:49:30;25.70;44.00
44982;DHT22;30716;41.740;-70.400;2022-12-07T14:52:21;25.70;44.10
44982;DHT22;30716;41.740;-70.400;2022-12-07T14:54:49;25.70;44.10
44982;DHT22;30716;41.740;-70.400;2022-12-07T14:57:18;25.70;44.10
44982;DHT22;30716;41.740;-70.400;2022-12-07T14:59:58;25.70;44.20
44982;DHT22;30716;41.740;-70.400;2022-12-07T15:02:35;25.70;44.20
44982;DHT22;30716;41.740;-70.400;2022-12-07T15:05:22;25.70;44.30
44982;DHT22;30716;41.740;-70.400;2022-12-07T15:07:50;25.60;44.30
44982;DHT22;30716;41.740;-70.400;2022-12-07T15:10:22;25.60;44.40
44982;DHT22;30716;41.740;-70.400;2022-12-07T15:12:49;25.60;44.40
44982;DHT22;30716;41.740;-70.400;2022-12-07T15:15:16;25.60;44.30
44982;DHT22;30716;41.740;-70.400;2022-12-07T15:17:43;25.60;44.40
44982;DHT22;30716;41.740;-70.400;2022-12-07T15:20:13;25.60;44.40
44982;DHT22;30716;41.740;-70.400;2022-12-07T15:22:39;25.60;44.60
44982;DHT22;30716;41.740;-70.400;2022-12-07T15:25:06;25.50;44.50
44982;DHT22;30716;41.740;-70.400;2022-12-07T15:27:33;25.50;44.60
44982;DHT22;30716;41.740;-70.400;2022-12-07T15:29:59;25.50;44.70
44982;DHT22;30716;41.740;-70.400;2022-12-07T15:32:26;25.50;44.70
44982;DHT22;30716;41.740;-70.400;2022-12-07T15:34:52;25.50;44.60
44982;DHT22;30716;41.740;-70.400;2022-12-07T15:37:18;25.50;44.60
44982;DHT22;30716;41.740;-70.400;2022-12-07T15:39:45;25.50;44.70
44982;DHT22;30716;41.740;-70.400;2022-12-07T15:42:11;25.50;44.70
44982;DHT22;30716;41.740;-70.400;2022-12-07T15:44:38;25.50;44.70
44982;DHT22;30716;41.740;-70.400;2022-12-07T15:47:22;25.40;44.60
44982;DHT22;30716;41.740;-70.400;2022-12-07T15:49:49;25.50;44.70
44982;DHT22;30716;41.740;-70.400;2022-12-07T15:52:15;25.50;44.70
44982;DHT22;30716;41.740;-70.400;2022-12-07T15:54:42;25.50;44.70
44982;DHT22;30716;41.740;-70.400;2022-12-07T15:57:08;25.50;44.70
44982;DHT22;30716;41.740;-70.400;2022-12-07T15:59:35;25.50;44.70
44982;DHT22;30716;41.740;-70.400;2022-12-07T16:02:01;25.50;44.70
44982;DHT22;30716;41.740;-70.400;2022-12-07T16:04:28;25.50;44.70
44982;DHT22;30716;41.740;-70.400;2022-12-07T16:06:55;25.40;44.70
44982;DHT22;30716;41.740;-70.400;2022-12-07T16:09:22;25.40;45.50
44982;DHT22;30716;41.740;-70.400;2022-12-07T16:11:48;25.40;44.70
44982;DHT22;30716;41.740;-70.400;2022-12-07T16:14:16;25.50;44.70
44982;DHT22;30716;41.740;-70.400;2022-12-07T16:16:42;25.40;44.70
44982;DHT22;30716;41.740;-70.400;2022-12-07T16:19:11;25.40;44.60
44982;DHT22;30716;41.740;-70.400;2022-12-07T16:21:38;25.40;44.80
44982;DHT22;30716;41.740;-70.400;2022-12-07T16:24:05;25.40;44.80
44982;DHT22;30716;41.740;-70.400;2022-12-07T16:26:32;25.40;44.80
44982;DHT22;30716;41.740;-70.400;2022-12-07T16:28:58;25.40;44.80
44982;DHT22;30716;41.740;-70.400;2022-12-07T16:31:26;25.50;45.00
44982;DHT22;30716;41.740;-70.400;2022-12-07T16:33:55;25.40;45.00
44982;DHT22;30716;41.740;-70.400;2022-12-07T16:36:22;25.50;44.90
44982;DHT22;30716;41.740;-70.400;2022-12-07T16:38:50;25.40;44.80
44982;DHT22;30716;41.740;-70.400;2022-12-07T16:41:17;25.40;44.90
44982;DHT22;30716;41.740;-70.400;2022-12-07T16:43:44;25.40;44.90
44982;DHT22;30716;41.740;-70.400;2022-12-07T16:46:10;25.40;45.00
44982;DHT22;30716;41.740;-70.400;2022-12-07T16:48:38;25.40;44.90
44982;DHT22;30716;41.740;-70.400;2022-12-07T16:51:10;25.40;44.90
44982;DHT22;30716;41.740;-70.400;2022-12-07T16:53:40;25.40;45.00
44982;DHT22;30716;41.740;-70.400;2022-12-07T16:56:14;25.40;44.90
44982;DHT22;30716;41.740;-70.400;2022-12-07T16:58:44;25.40;44.90
44982;DHT22;30716;41.740;-70.400;2022-12-07T17:01:19;25.40;44.90
44982;DHT22;30716;41.740;-70.400;2022-12-07T17:03:47;25.40;44.90
44982;DHT22;30716;41.740;-70.400;2022-12-07T17:06:16;25.40;44.90
44982;DHT22;30716;41.740;-70.400;2022-12-07T17:08:43;25.40;44.90
44982;DHT22;30716;41.740;-70.400;2022-12-07T17:11:11;25.40;44.90
44982;DHT22;30716;41.740;-70.400;2022-12-07T17:13:38;25.40;44.90
44982;DHT22;30716;41.740;-70.400;2022-12-07T17:16:22;25.40;45.00
44982;DHT22;30716;41.740;-70.400;2022-12-07T17:18:58;25.40;45.00